Time;durP1;ratioP1;P1;durP2;ratioP2;P2;SDS_P1;SDS_P2;PMS_P1;PMS_P2;Temp;Humidity;BMP_temperature;BMP_pressure;BME280_temperature;BME280_humidity;BME280_pressure;Samples;Min_cycle;Max_cycle;Signal;HPM_P1;HPM_P2
2022/03/22 00:02:11;;;;;;;;;;;21.90;35.00;;;;;;5066185;28;19913;-54
2022/03/22 00:04:38;;;;;;;;;;;21.90;35.00;;;;;;5066406;28;19916;-54
2022/03/22 00:07:03;;;;;;;;;;;21.90;35.10;;;;;;5067106;28;19947;-54
2022/03/22 00:09:29;;;;;;;;;;;21.80;34.90;;;;;;5068380;28;20372;-55
2022/03/22 00:11:54;;;;;;;;;;;21.90;35.00;;;;;;5067093;28;20291;-54
2022/03/22 00:14:20;;;;;;;;;;;21.90;35.00;;;;;;5067658;28;20287;-54
2022/03/22 00:16:45;;;;;;;;;;;21.80;34.90;;;;;;5065276;28;19940;-54
2022/03/22 00:19:11;;;;;;;;;;;21.80;34.90;;;;;;5068379;28;19917;-55
2022/03/22 00:21:36;;;;;;;;;;;21.70;34.90;;;;;;5065434;28;19916;-54
2022/03/22 00:24:02;;;;;;;;;;;21.70;34.90;;;;;;5067267;28;19955;-55
2022/03/22 00:26:27;;;;;;;;;;;21.70;34.90;;;;;;5067008;28;19916;-54
2022/03/22 00:28:53;;;;;;;;;;;21.70;34.90;;;;;;5065861;28;19913;-54
2022/03/22 00:31:18;;;;;;;;;;;21.70;34.90;;;;;;5070824;28;19913;-54
2022/03/22 00:33:44;;;;;;;;;;;21.60;34.80;;;;;;5069600;28;19920;-55
2022/03/22 00:36:10;;;;;;;;;;;21.60;34.80;;;;;;5071163;28;19921;-55
2022/03/22 00:38:36;;;;;;;;;;;21.60;34.80;;;;;;5071753;28;20292;-54
2022/03/22 00:41:01;;;;;;;;;;;21.60;34.80;;;;;;5070667;28;19912;-55
2022/03/22 00:43:27;;;;;;;;;;;21.60;34.80;;;;;;5071346;28;19913;-55
2022/03/22 00:45:52;;;;;;;;;;;21.60;34.80;;;;;;5069233;28;19966;-55
2022/03/22 00:48:18;;;;;;;;;;;21.60;34.80;;;;;;5071600;28;19974;-54
2022/03/22 00:50:45;;;;;;;;;;;21.50;34.70;;;;;;5067199;28;20070;-55
2022/03/22 00:53:12;;;;;;;;;;;21.50;34.80;;;;;;5070373;28;19923;-55
2022/03/22 00:55:40;;;;;;;;;;;21.50;34.70;;;;;;5071320;28;20287;-55
2022/03/22 00:58:05;;;;;;;;;;;21.50;34.80;;;;;;5068248;28;19916;-55
2022/03/22 01:00:30;;;;;;;;;;;21.40;34.80;;;;;;5063310;28;19924;-55
2022/03/22 01:02:56;;;;;;;;;;;21.40;34.60;;;;;;5068442;28;20003;-55
2022/03/22 01:05:22;;;;;;;;;;;21.40;34.70;;;;;;5070280;28;19912;-56
2022/03/22 01:07:52;;;;;;;;;;;21.40;34.80;;;;;;5070622;28;19939;-55
2022/03/22 01:10:18;;;;;;;;;;;21.30;34.80;;;;;;5070492;28;19921;-55
2022/03/22 01:12:43;;;;;;;;;;;21.30;34.80;;;;;;5068673;28;19951;-55
2022/03/22 01:15:10;;;;;;;;;;;21.30;34.80;;;;;;5070845;28;19963;-56
2022/03/22 01:17:38;;;;;;;;;;;21.30;34.60;;;;;;5068052;28;19982;-54
2022/03/22 01:20:05;;;;;;;;;;;21.30;34.80;;;;;;5068456;28;19921;-54
2022/03/22 01:22:31;;;;;;;;;;;21.20;34.70;;;;;;5069510;28;20011;-55
2022/03/22 01:24:56;;;;;;;;;;;21.20;34.60;;;;;;5070426;28;20011;-54
2022/03/22 01:27:22;;;;;;;;;;;21.20;34.90;;;;;;5068238;28;19916;-55
2022/03/22 01:29:48;;;;;;;;;;;21.20;34.70;;;;;;5068808;28;20006;-55
2022/03/22 01:32:13;;;;;;;;;;;21.20;34.80;;;;;;5070827;28;19920;-55
2022/03/22 01:34:39;;;;;;;;;;;21.20;34.80;;;;;;5069248;28;19916;-55
2022/03/22 01:37:04;;;;;;;;;;;21.20;34.90;;;;;;5069690;28;19921;-55
2022/03/22 01:39:30;;;;;;;;;;;21.20;34.80;;;;;;5067375;28;19920;-55
2022/03/22 01:41:55;;;;;;;;;;;21.10;34.70;;;;;;5069184;28;19942;-55
2022/03/22 01:44:21;;;;;;;;;;;21.10;34.70;;;;;;5070655;28;19916;-55
2022/03/22 01:46:47;;;;;;;;;;;21.10;34.50;;;;;;5068678;28;20002;-55
2022/03/22 01:49:12;;;;;;;;;;;21.10;34.50;;;;;;5069195;28;20011;-56
2022/03/22 01:51:38;;;;;;;;;;;21.00;34.70;;;;;;5069226;28;20307;-55
2022/03/22 01:54:03;;;;;;;;;;;21.00;34.60;;;;;;5068165;28;19912;-55
2022/03/22 01:56:29;;;;;;;;;;;21.00;34.50;;;;;;5069703;28;20631;-55
2022/03/22 01:58:55;;;;;;;;;;;21.00;34.70;;;;;;5068468;28;20272;-55
2022/03/22 02:06:51;;;;;;;;;;;20.90;34.60;;;;;;5066465;28;19970;-55
2022/03/22 02:09:17;;;;;;;;;;;20.90;34.70;;;;;;5068919;28;20261;-56
2022/03/22 02:11:42;;;;;;;;;;;20.90;34.70;;;;;;5068130;28;19912;-55
2022/03/22 02:14:09;;;;;;;;;;;20.80;34.50;;;;;;5070397;28;19959;-55
2022/03/22 02:16:34;;;;;;;;;;;20.90;34.70;;;;;;5069339;28;20016;-55
2022/03/22 02:19:00;;;;;;;;;;;21.00;34.50;;;;;;5069811;28;20022;-55
2022/03/22 02:21:25;;;;;;;;;;;21.20;34.50;;;;;;5066922;28;20343;-55
2022/03/22 02:23:57;;;;;;;;;;;21.30;34.30;;;;;;5067298;28;19917;-55
2022/03/22 02:26:24;;;;;;;;;;;21.50;34.00;;;;;;5065766;28;19912;-55
2022/03/22 02:28:53;;;;;;;;;;;21.80;33.50;;;;;;5068182;28;20022;-55
2022/03/22 02:31:19;;;;;;;;;;;22.00;32.90;;;;;;5069219;28;19947;-55
2022/03/22 02:33:44;;;;;;;;;;;22.40;32.50;;;;;;5069379;28;19970;-55
2022/03/22 02:36:10;;;;;;;;;;;22.70;32.00;;;;;;5068672;28;19916;-55
2022/03/22 02:38:36;;;;;;;;;;;23.00;31.50;;;;;;5069901;28;19921;-55
2022/03/22 02:41:01;;;;;;;;;;;23.30;31.10;;;;;;5068384;28;20431;-55
2022/03/22 02:43:27;;;;;;;;;;;23.50;30.70;;;;;;5068296;28;19913;-54
2022/03/22 02:45:53;;;;;;;;;;;23.70;30.60;;;;;;5068043;28;19958;-54
2022/03/22 02:48:18;;;;;;;;;;;23.80;30.30;;;;;;5067982;28;20264;-54
2022/03/22 02:50:44;;;;;;;;;;;23.90;30.20;;;;;;5066163;28;19940;-55
2022/03/22 02:53:09;;;;;;;;;;;24.00;30.10;;;;;;5066474;28;19923;-54
2022/03/22 02:55:35;;;;;;;;;;;24.00;30.10;;;;;;5066690;28;19917;-55
2022/03/22 02:58:00;;;;;;;;;;;24.00;30.10;;;;;;5068182;28;19923;-55
2022/03/22 03:00:26;;;;;;;;;;;24.00;30.20;;;;;;5062939;28;20050;-54
2022/03/22 03:02:52;;;;;;;;;;;23.90;30.20;;;;;;5068808;28;19924;-54
2022/03/22 03:05:19;;;;;;;;;;;23.80;30.20;;;;;;5065663;28;19916;-55
2022/03/22 03:07:44;;;;;;;;;;;23.80;30.40;;;;;;5067104;28;19947;-54
2022/03/22 03:10:10;;;;;;;;;;;23.70;30.60;;;;;;5069272;28;20390;-55
2022/03/22 03:12:35;;;;;;;;;;;23.60;30.80;;;;;;5065958;28;20404;-54
2022/03/22 03:15:01;;;;;;;;;;;23.40;30.60;;;;;;5069100;28;19923;-54
2022/03/22 03:17:26;;;;;;;;;;;23.40;30.90;;;;;;5068189;28;20003;-54
2022/03/22 03:19:52;;;;;;;;;;;23.30;31.00;;;;;;5067971;28;19943;-54
2022/03/22 03:22:18;;;;;;;;;;;23.20;31.10;;;;;;5067312;28;19917;-54
2022/03/22 03:24:43;;;;;;;;;;;23.10;31.20;;;;;;5067931;28;20011;-54
2022/03/22 03:27:08;;;;;;;;;;;23.00;31.40;;;;;;5068110;28;19912;-54
2022/03/22 03:29:34;;;;;;;;;;;22.90;31.50;;;;;;5065524;28;19917;-54
2022/03/22 03:32:00;;;;;;;;;;;22.80;31.60;;;;;;5065676;28;20387;-55
2022/03/22 03:34:25;;;;;;;;;;;22.80;31.70;;;;;;5068323;28;20390;-55
2022/03/22 03:36:51;;;;;;;;;;;22.70;31.70;;;;;;5067194;28;19916;-55
2022/03/22 03:39:16;;;;;;;;;;;22.80;31.80;;;;;;5068871;28;19917;-54
2022/03/22 03:41:53;;;;;;;;;;;22.70;31.70;;;;;;5066954;28;19916;-54
2022/03/22 03:47:04;;;;;;;;;;;22.80;31.70;;;;;;5067704;28;19919;-54
2022/03/22 03:49:30;;;;;;;;;;;22.80;31.70;;;;;;5068178;28;20288;-55
2022/03/22 03:51:55;;;;;;;;;;;22.80;31.60;;;;;;5066894;28;19917;-54
2022/03/22 03:54:21;;;;;;;;;;;22.80;32.20;;;;;;5068919;28;19955;-55
2022/03/22 03:56:47;;;;;;;;;;;22.80;31.60;;;;;;5067418;28;19924;-54
2022/03/22 03:59:12;;;;;;;;;;;22.80;31.50;;;;;;5066582;28;19912;-54
2022/03/22 04:01:37;;;;;;;;;;;22.80;31.40;;;;;;5068227;28;19916;-54
2022/03/22 04:04:03;;;;;;;;;;;22.80;31.40;;;;;;5067016;28;19924;-54
2022/03/22 04:06:29;;;;;;;;;;;22.90;31.50;;;;;;5067534;28;20260;-55
2022/03/22 04:08:55;;;;;;;;;;;22.90;31.50;;;;;;5068505;28;19995;-55
2022/03/22 04:11:20;;;;;;;;;;;22.90;31.40;;;;;;5066721;28;19919;-55
2022/03/22 04:13:45;;;;;;;;;;;22.90;31.40;;;;;;5067304;28;20094;-54
2022/03/22 04:16:11;;;;;;;;;;;22.90;31.40;;;;;;5067596;28;19966;-55
2022/03/22 04:18:36;;;;;;;;;;;22.90;31.40;;;;;;5067980;28;19913;-54
2022/03/22 04:21:02;;;;;;;;;;;23.00;31.40;;;;;;5067101;28;19968;-55
2022/03/22 04:23:28;;;;;;;;;;;23.10;31.20;;;;;;5067603;28;20346;-54
2022/03/22 04:25:54;;;;;;;;;;;23.10;31.00;;;;;;5067326;28;19927;-55
2022/03/22 04:33:48;;;;;;;;;;;23.40;30.70;;;;;;5067146;28;20379;-55
2022/03/22 04:36:13;;;;;;;;;;;23.50;30.70;;;;;;5066946;28;19912;-55
2022/03/22 04:38:39;;;;;;;;;;;23.50;30.70;;;;;;5067323;28;19923;-55
2022/03/22 04:41:06;;;;;;;;;;;23.50;30.50;;;;;;5064877;28;19912;-55
2022/03/22 04:43:31;;;;;;;;;;;23.50;30.40;;;;;;5067607;28;19917;-54
2022/03/22 04:45:56;;;;;;;;;;;23.60;30.40;;;;;;5066687;28;19909;-55
2022/03/22 04:48:22;;;;;;;;;;;23.60;30.40;;;;;;5065428;28;19912;-56
2022/03/22 04:50:47;;;;;;;;;;;23.60;30.30;;;;;;5065935;28;20012;-55
2022/03/22 04:58:41;;;;;;;;;;;23.50;30.40;;;;;;5064716;28;19942;-55
2022/03/22 05:01:07;;;;;;;;;;;23.40;30.40;;;;;;5059165;28;20119;-55
2022/03/22 05:03:32;;;;;;;;;;;23.30;30.50;;;;;;5065304;28;20284;-54
2022/03/22 05:08:42;;;;;;;;;;;23.30;30.60;;;;;;5066957;28;20364;-56
2022/03/22 05:11:07;;;;;;;;;;;23.20;30.70;;;;;;5066071;28;20011;-55
2022/03/22 05:13:33;;;;;;;;;;;23.10;30.70;;;;;;5066660;28;19947;-55
2022/03/22 05:15:58;;;;;;;;;;;23.20;30.80;;;;;;5067613;28;20003;-55
2022/03/22 05:18:26;;;;;;;;;;;23.10;30.80;;;;;;5068785;28;20300;-55
2022/03/22 05:20:52;;;;;;;;;;;23.10;30.80;;;;;;5070777;28;19920;-55
2022/03/22 05:23:17;;;;;;;;;;;23.00;30.80;;;;;;5069747;28;19913;-56
2022/03/22 05:25:43;;;;;;;;;;;23.00;30.90;;;;;;5070843;28;19913;-54
2022/03/22 05:28:08;;;;;;;;;;;22.90;30.90;;;;;;5066921;28;19916;-54
2022/03/22 05:30:34;;;;;;;;;;;23.00;31.60;;;;;;5071213;28;19916;-55
2022/03/22 05:32:59;;;;;;;;;;;23.00;30.90;;;;;;5069942;28;19921;-55
2022/03/22 05:35:25;;;;;;;;;;;23.10;30.80;;;;;;5068401;28;19924;-54
2022/03/22 05:37:51;;;;;;;;;;;23.20;30.80;;;;;;5071037;28;19920;-54
2022/03/22 05:40:17;;;;;;;;;;;23.20;30.50;;;;;;5069332;28;19928;-55
2022/03/22 05:42:42;;;;;;;;;;;23.30;30.60;;;;;;5065230;28;19913;-54
2022/03/22 05:45:09;;;;;;;;;;;23.30;30.50;;;;;;5070209;28;19912;-54
2022/03/22 05:47:34;;;;;;;;;;;23.40;30.40;;;;;;5069891;28;19970;-55
2022/03/22 05:50:00;;;;;;;;;;;23.40;30.40;;;;;;5070836;28;20021;-55
2022/03/22 05:52:25;;;;;;;;;;;23.40;30.40;;;;;;5069110;28;19923;-55
2022/03/22 05:54:51;;;;;;;;;;;23.40;30.40;;;;;;5070724;28;19916;-55
2022/03/22 05:57:16;;;;;;;;;;;23.40;30.40;;;;;;5067124;28;19924;-55
2022/03/22 05:59:42;;;;;;;;;;;23.40;30.40;;;;;;5068876;28;19916;-54
2022/03/22 06:02:08;;;;;;;;;;;23.40;30.50;;;;;;5067982;28;20340;-54
2022/03/22 06:04:34;;;;;;;;;;;23.30;30.30;;;;;;5068719;28;19927;-54
2022/03/22 06:07:00;;;;;;;;;;;23.30;30.40;;;;;;5066613;28;19921;-55
2022/03/22 06:09:26;;;;;;;;;;;23.30;30.40;;;;;;5069685;28;19952;-55
2022/03/22 06:11:51;;;;;;;;;;;23.30;30.50;;;;;;5066103;28;19986;-55
2022/03/22 06:14:17;;;;;;;;;;;23.30;30.50;;;;;;5067728;28;19938;-55
2022/03/22 06:16:42;;;;;;;;;;;23.30;30.50;;;;;;5068755;28;19916;-55
2022/03/22 06:19:08;;;;;;;;;;;23.30;30.50;;;;;;5069836;28;20007;-55
2022/03/22 06:21:33;;;;;;;;;;;23.20;30.50;;;;;;5068682;28;20441;-55
2022/03/22 06:23:58;;;;;;;;;;;23.30;30.50;;;;;;5069028;28;20300;-55
2022/03/22 06:26:24;;;;;;;;;;;23.30;30.50;;;;;;5069491;28;19913;-55
2022/03/22 06:28:49;;;;;;;;;;;23.30;30.30;;;;;;5065580;28;19924;-54
2022/03/22 06:31:16;;;;;;;;;;;23.40;30.30;;;;;;5066449;28;19913;-54
2022/03/22 06:33:41;;;;;;;;;;;23.40;30.20;;;;;;5066871;28;19968;-55
2022/03/22 06:36:08;;;;;;;;;;;23.40;30.20;;;;;;5066510;28;19962;-54
2022/03/22 06:38:37;;;;;;;;;;;23.40;30.20;;;;;;5067240;28;20263;-54
2022/03/22 06:41:02;;;;;;;;;;;23.40;30.20;;;;;;5066364;28;19970;-54
2022/03/22 06:43:28;;;;;;;;;;;23.40;30.20;;;;;;5063306;28;19916;-55
2022/03/22 06:45:53;;;;;;;;;;;23.40;30.30;;;;;;5064710;28;20007;-55
2022/03/22 06:48:19;;;;;;;;;;;23.40;30.30;;;;;;5065192;28;19955;-55
2022/03/22 06:50:47;;;;;;;;;;;23.40;30.40;;;;;;5064941;28;20011;-54
2022/03/22 06:53:12;;;;;;;;;;;23.40;30.50;;;;;;5063779;28;19927;-55
2022/03/22 06:55:38;;;;;;;;;;;23.30;30.50;;;;;;5064940;28;19912;-53
2022/03/22 06:58:04;;;;;;;;;;;23.30;30.60;;;;;;5067315;28;19966;-56
2022/03/22 07:00:31;;;;;;;;;;;23.30;30.50;;;;;;5065895;28;19974;-55
2022/03/22 07:02:57;;;;;;;;;;;23.20;30.60;;;;;;5062793;28;19959;-56
2022/03/22 07:05:22;;;;;;;;;;;23.10;30.60;;;;;;5059947;28;19956;-56
2022/03/22 07:07:47;;;;;;;;;;;23.10;30.70;;;;;;5063267;28;19917;-55
2022/03/22 07:10:17;;;;;;;;;;;23.10;30.80;;;;;;5061414;28;20368;-55
2022/03/22 07:13:04;;;;;;;;;;;23.10;30.80;;;;;;5064144;28;19978;-56
2022/03/22 07:15:30;;;;;;;;;;;23.10;30.80;;;;;;5066590;28;19970;-55
2022/03/22 07:17:58;;;;;;;;;;;23.10;30.80;;;;;;5065913;28;19916;-54
2022/03/22 07:20:23;;;;;;;;;;;23.20;30.90;;;;;;5069426;28;20382;-56
2022/03/22 07:22:49;;;;;;;;;;;23.30;30.80;;;;;;5071832;28;19908;-55
2022/03/22 07:25:14;;;;;;;;;;;23.50;30.70;;;;;;5067813;28;20306;-55
2022/03/22 07:27:40;;;;;;;;;;;23.60;30.80;;;;;;5058643;28;19916;-54
2022/03/22 07:30:06;;;;;;;;;;;23.70;30.50;;;;;;5068289;28;19939;-54
2022/03/22 07:32:31;;;;;;;;;;;23.80;30.40;;;;;;5071215;28;19973;-56
2022/03/22 07:35:00;;;;;;;;;;;23.90;30.20;;;;;;5060600;28;19920;-54
2022/03/22 07:37:28;;;;;;;;;;;24.10;30.20;;;;;;5067731;28;19912;-55
2022/03/22 07:39:54;;;;;;;;;;;24.20;30.00;;;;;;5062982;28;19927;-54
2022/03/22 07:42:24;;;;;;;;;;;24.30;30.60;;;;;;5068513;28;19913;-55
2022/03/22 07:44:49;;;;;;;;;;;24.40;29.90;;;;;;5069289;28;19916;-56
2022/03/22 07:47:15;;;;;;;;;;;24.50;29.80;;;;;;5060567;28;19913;-55
2022/03/22 07:55:10;;;;;;;;;;;24.60;29.70;;;;;;5063780;28;19940;-55
2022/03/22 07:57:35;;;;;;;;;;;24.50;29.80;;;;;;5068906;28;19913;-55
2022/03/22 08:00:01;;;;;;;;;;;24.50;29.80;;;;;;5070993;28;20268;-55
2022/03/22 08:02:27;;;;;;;;;;;24.40;30.00;;;;;;5062514;28;20395;-55
2022/03/22 08:04:53;;;;;;;;;;;24.40;30.00;;;;;;5063580;28;19978;-55
2022/03/22 08:07:18;;;;;;;;;;;24.40;30.10;;;;;;5061703;28;19921;-55
2022/03/22 08:09:45;;;;;;;;;;;24.40;30.20;;;;;;5064826;28;19912;-56
2022/03/22 08:12:11;;;;;;;;;;;24.40;30.20;;;;;;5066822;28;19916;-55
2022/03/22 08:14:38;;;;;;;;;;;24.40;30.20;;;;;;5058549;28;19924;-54
2022/03/22 08:17:03;;;;;;;;;;;24.40;30.20;;;;;;5067403;28;19917;-55
2022/03/22 08:19:29;;;;;;;;;;;24.50;30.20;;;;;;5066732;28;20307;-54
2022/03/22 08:21:55;;;;;;;;;;;24.50;30.20;;;;;;5061666;28;20003;-56
2022/03/22 08:24:20;;;;;;;;;;;24.50;30.20;;;;;;5060005;28;20311;-56
2022/03/22 08:26:45;;;;;;;;;;;24.50;30.10;;;;;;5066504;28;19920;-53
2022/03/22 08:29:11;;;;;;;;;;;24.60;30.30;;;;;;5062981;28;19927;-55
2022/03/22 08:31:36;;;;;;;;;;;24.60;30.30;;;;;;5056478;28;19916;-54
2022/03/22 08:34:03;;;;;;;;;;;24.60;30.30;;;;;;5055030;28;20391;-56
2022/03/22 08:36:28;;;;;;;;;;;24.60;30.30;;;;;;5061069;28;19913;-56
2022/03/22 08:38:54;;;;;;;;;;;24.60;30.30;;;;;;5070029;28;19917;-55
2022/03/22 08:41:19;;;;;;;;;;;24.60;30.30;;;;;;5069073;28;19935;-55
2022/03/22 08:43:45;;;;;;;;;;;24.60;30.30;;;;;;5065434;28;19916;-55
2022/03/22 08:46:11;;;;;;;;;;;24.60;30.40;;;;;;5064630;28;19916;-54
2022/03/22 08:48:37;;;;;;;;;;;24.60;30.50;;;;;;5070556;28;19916;-54
2022/03/22 08:51:03;;;;;;;;;;;24.50;30.40;;;;;;5065989;28;19939;-54
2022/03/22 08:53:30;;;;;;;;;;;24.50;30.50;;;;;;5061886;28;20354;-54
2022/03/22 08:55:56;;;;;;;;;;;24.50;30.60;;;;;;5070680;28;19923;-53
2022/03/22 08:58:21;;;;;;;;;;;24.30;30.70;;;;;;5065391;28;20012;-53
2022/03/22 09:00:48;;;;;;;;;;;24.30;31.00;;;;;;5062563;28;19932;-55
2022/03/22 09:03:14;;;;;;;;;;;24.20;31.00;;;;;;5068062;28;20292;-54
2022/03/22 09:08:24;;;;;;;;;;;24.10;31.20;;;;;;5068782;28;20291;-54
2022/03/22 09:10:50;;;;;;;;;;;24.10;31.20;;;;;;5061659;28;20023;-54
2022/03/22 09:13:16;;;;;;;;;;;24.00;31.30;;;;;;5065779;28;19919;-54
2022/03/22 09:15:42;;;;;;;;;;;24.10;31.20;;;;;;5073129;28;19951;-54
2022/03/22 09:18:13;;;;;;;;;;;24.20;31.30;;;;;;5066371;28;19958;-54
2022/03/22 09:20:39;;;;;;;;;;;24.10;31.10;;;;;;5072987;28;19962;-55
2022/03/22 09:23:05;;;;;;;;;;;24.10;31.20;;;;;;5061100;28;19917;-54
2022/03/22 09:25:30;;;;;;;;;;;24.10;31.20;;;;;;5073713;28;19912;-55
2022/03/22 09:27:56;;;;;;;;;;;24.20;31.40;;;;;;5071262;28;19916;-55
2022/03/22 09:30:22;;;;;;;;;;;24.30;31.40;;;;;;5071539;28;19962;-54
2022/03/22 09:32:47;;;;;;;;;;;24.40;31.60;;;;;;5070246;28;19962;-55
2022/03/22 09:35:16;;;;;;;;;;;24.50;31.50;;;;;;5068072;28;20007;-54
2022/03/22 09:37:43;;;;;;;;;;;24.40;31.50;;;;;;5068935;28;19913;-54
2022/03/22 09:40:09;;;;;;;;;;;24.50;31.60;;;;;;5065276;28;19917;-54
2022/03/22 09:42:35;;;;;;;;;;;24.50;31.60;;;;;;5065961;28;19919;-53
2022/03/22 09:45:00;;;;;;;;;;;24.50;31.70;;;;;;5068987;28;19923;-53
2022/03/22 09:47:26;;;;;;;;;;;24.50;31.80;;;;;;5064835;28;20371;-55
2022/03/22 09:49:52;;;;;;;;;;;24.50;31.70;;;;;;5070696;28;20424;-55
2022/03/22 09:52:17;;;;;;;;;;;24.50;31.90;;;;;;5069182;28;20005;-55
2022/03/22 09:54:43;;;;;;;;;;;24.50;31.90;;;;;;5071799;28;19913;-55
2022/03/22 09:57:09;;;;;;;;;;;24.50;32.00;;;;;;5066497;28;19917;-56
2022/03/22 09:59:35;;;;;;;;;;;24.40;32.10;;;;;;5072905;28;19999;-55
2022/03/22 10:02:01;;;;;;;;;;;24.30;32.20;;;;;;5071171;28;20427;-56
2022/03/22 10:04:35;;;;;;;;;;;24.30;32.40;;;;;;5070134;28;19916;-54
2022/03/22 10:07:03;;;;;;;;;;;24.40;32.50;;;;;;5059510;28;20026;-54
2022/03/22 10:09:33;;;;;;;;;;;24.40;32.40;;;;;;5063785;28;19913;-54
2022/03/22 10:11:58;;;;;;;;;;;24.50;32.30;;;;;;5060402;28;19931;-53
2022/03/22 10:14:36;;;;;;;;;;;24.50;32.30;;;;;;5065587;28;19913;-55
2022/03/22 10:17:15;;;;;;;;;;;24.60;32.20;;;;;;5066959;28;19912;-55
2022/03/22 10:19:42;;;;;;;;;;;24.70;32.30;;;;;;5063779;28;20027;-54
2022/03/22 10:22:10;;;;;;;;;;;24.70;32.20;;;;;;5072633;28;19908;-53
2022/03/22 10:24:42;;;;;;;;;;;24.70;32.30;;;;;;5066397;28;20356;-54
2022/03/22 10:27:23;;;;;;;;;;;24.70;32.40;;;;;;5070543;28;19913;-54
2022/03/22 10:29:49;;;;;;;;;;;24.70;32.50;;;;;;5072522;28;19919;-54
2022/03/22 10:32:15;;;;;;;;;;;24.70;32.50;;;;;;5071228;28;19908;-54
2022/03/22 10:34:42;;;;;;;;;;;24.60;32.60;;;;;;5072637;28;20363;-54
2022/03/22 10:37:08;;;;;;;;;;;24.50;32.70;;;;;;5067968;28;19909;-54
2022/03/22 10:39:40;;;;;;;;;;;24.40;32.70;;;;;;5069053;28;19912;-55
2022/03/22 10:42:06;;;;;;;;;;;24.50;32.90;;;;;;5062769;28;20355;-55
2022/03/22 10:44:35;;;;;;;;;;;24.50;32.90;;;;;;5066083;28;20015;-54
2022/03/22 10:47:04;;;;;;;;;;;24.50;32.90;;;;;;5070951;28;20597;-54
2022/03/22 10:49:29;;;;;;;;;;;24.50;32.90;;;;;;5070859;28;19928;-54
2022/03/22 10:51:56;;;;;;;;;;;24.50;32.90;;;;;;5065238;28;19912;-55
2022/03/22 10:54:21;;;;;;;;;;;24.50;32.90;;;;;;5072782;28;19977;-55
2022/03/22 10:56:48;;;;;;;;;;;24.40;33.10;;;;;;5070064;28;19912;-54
2022/03/22 10:59:14;;;;;;;;;;;24.40;33.20;;;;;;5071461;28;20007;-54
2022/03/22 11:01:43;;;;;;;;;;;24.40;33.30;;;;;;5071735;28;20308;-54
2022/03/22 11:04:08;;;;;;;;;;;24.40;33.30;;;;;;5070543;28;19920;-55
2022/03/22 11:06:34;;;;;;;;;;;24.40;33.40;;;;;;5063740;28;20412;-54
2022/03/22 11:08:59;;;;;;;;;;;24.30;33.30;;;;;;5071563;28;19916;-55
2022/03/22 11:11:25;;;;;;;;;;;24.30;33.30;;;;;;5071633;28;19908;-54
2022/03/22 11:13:51;;;;;;;;;;;24.40;33.30;;;;;;5070129;28;19923;-54
2022/03/22 11:16:16;;;;;;;;;;;24.50;33.40;;;;;;5071257;28;20368;-54
2022/03/22 11:18:42;;;;;;;;;;;24.50;33.20;;;;;;5069682;28;19920;-54
2022/03/22 11:21:07;;;;;;;;;;;24.50;33.00;;;;;;5070586;28;19969;-54
2022/03/22 11:23:33;;;;;;;;;;;24.60;32.90;;;;;;5071689;28;19958;-55
2022/03/22 11:26:08;;;;;;;;;;;24.60;32.70;;;;;;5070999;28;20003;-55
2022/03/22 11:28:34;;;;;;;;;;;24.70;32.60;;;;;;5068067;28;20324;-54
2022/03/22 11:30:59;;;;;;;;;;;24.70;32.50;;;;;;5069207;28;20365;-53
2022/03/22 11:36:28;;;;;;;;;;;24.80;32.20;;;;;;5069419;28;20018;-54
2022/03/22 11:38:57;;;;;;;;;;;24.80;32.10;;;;;;5070402;28;20397;-53
2022/03/22 11:44:20;;;;;;;;;;;24.90;31.90;;;;;;5077820;28;19915;-53
2022/03/22 11:46:46;;;;;;;;;;;24.90;31.90;;;;;;5070536;28;20352;-54
2022/03/22 11:49:18;;;;;;;;;;;24.90;31.90;;;;;;5070623;28;20332;-55
2022/03/22 11:51:50;;;;;;;;;;;24.90;31.90;;;;;;5071009;28;20364;-53
2022/03/22 11:54:16;;;;;;;;;;;24.90;31.90;;;;;;5071702;28;19912;-54
2022/03/22 11:56:52;;;;;;;;;;;24.90;31.90;;;;;;5069847;28;19916;-54
2022/03/22 11:59:18;;;;;;;;;;;24.90;31.90;;;;;;5054519;28;19912;-54
2022/03/22 12:01:54;;;;;;;;;;;24.90;31.90;;;;;;5070589;28;19931;-54
2022/03/22 12:04:20;;;;;;;;;;;24.90;31.90;;;;;;5071023;28;19920;-55
2022/03/22 12:06:45;;;;;;;;;;;24.90;31.90;;;;;;5068754;28;19917;-54
2022/03/22 12:09:11;;;;;;;;;;;24.80;31.80;;;;;;5071355;28;20427;-55
2022/03/22 12:11:37;;;;;;;;;;;24.80;31.80;;;;;;5071186;28;19985;-54
2022/03/22 12:14:03;;;;;;;;;;;24.80;32.00;;;;;;5070992;28;20523;-54
2022/03/22 12:16:28;;;;;;;;;;;24.70;32.00;;;;;;5069989;28;19908;-54
2022/03/22 12:18:54;;;;;;;;;;;24.60;32.10;;;;;;5069609;28;19958;-54
2022/03/22 12:21:20;;;;;;;;;;;24.60;32.10;;;;;;5068468;28;19920;-53
2022/03/22 12:23:45;;;;;;;;;;;24.70;32.10;;;;;;5060805;28;19925;-53
2022/03/22 12:26:11;;;;;;;;;;;24.80;31.90;;;;;;5074042;28;19913;-55
2022/03/22 12:28:46;;;;;;;;;;;24.90;31.90;;;;;;5074274;28;20392;-54
2022/03/22 12:31:12;;;;;;;;;;;25.00;31.90;;;;;;5074538;28;20311;-54
2022/03/22 12:33:37;;;;;;;;;;;25.10;31.70;;;;;;5074732;28;19919;-55
2022/03/22 12:36:03;;;;;;;;;;;25.00;31.60;;;;;;5074567;28;19912;-54
2022/03/22 12:38:29;;;;;;;;;;;25.10;31.40;;;;;;5074234;28;19908;-55
2022/03/22 12:40:54;;;;;;;;;;;25.10;31.40;;;;;;5071263;28;19916;-54
2022/03/22 12:43:20;;;;;;;;;;;25.10;31.40;;;;;;5074121;28;20383;-55
2022/03/22 12:45:49;;;;;;;;;;;25.10;31.40;;;;;;5072191;28;20280;-53
2022/03/22 12:48:18;;;;;;;;;;;25.10;31.40;;;;;;5073037;28;19912;-54
2022/03/22 12:50:44;;;;;;;;;;;25.10;31.40;;;;;;5067624;28;20126;-55
2022/03/22 12:53:09;;;;;;;;;;;25.00;31.50;;;;;;5074257;28;20396;-54
2022/03/22 12:55:35;;;;;;;;;;;25.00;31.40;;;;;;5073997;28;20012;-54
2022/03/22 12:58:01;;;;;;;;;;;24.90;31.20;;;;;;5073213;28;20355;-54
2022/03/22 13:00:31;;;;;;;;;;;25.00;31.30;;;;;;5073768;28;20260;-54
2022/03/22 13:02:57;;;;;;;;;;;24.90;31.50;;;;;;5074144;28;19962;-54
2022/03/22 13:05:23;;;;;;;;;;;24.90;31.50;;;;;;5069899;28;19912;-54
2022/03/22 13:07:48;;;;;;;;;;;24.90;31.60;;;;;;5073819;28;19917;-55
2022/03/22 13:12:58;;;;;;;;;;;25.10;31.50;;;;;;5070276;28;19919;-53
2022/03/22 13:15:24;;;;;;;;;;;25.10;31.40;;;;;;5070442;28;19912;-54
2022/03/22 13:17:49;;;;;;;;;;;25.20;31.30;;;;;;5073972;28;19936;-56
2022/03/22 13:20:24;;;;;;;;;;;25.20;31.30;;;;;;5073859;28;19916;-53
2022/03/22 13:22:50;;;;;;;;;;;25.30;31.20;;;;;;5073786;28;19915;-54
2022/03/22 13:25:18;;;;;;;;;;;25.30;31.90;;;;;;5071376;28;19913;-54
2022/03/22 13:27:51;;;;;;;;;;;25.30;31.10;;;;;;5072532;28;19956;-54
2022/03/22 13:30:17;;;;;;;;;;;25.40;31.00;;;;;;5072692;28;20306;-55
2022/03/22 13:32:43;;;;;;;;;;;25.30;31.00;;;;;;5073576;28;19908;-54
2022/03/22 13:35:08;;;;;;;;;;;25.30;31.00;;;;;;5074088;28;19973;-56
2022/03/22 13:37:45;;;;;;;;;;;25.20;31.10;;;;;;5072039;28;19915;-55
2022/03/22 13:40:10;;;;;;;;;;;25.30;31.20;;;;;;5069939;28;20007;-57
2022/03/22 13:42:36;;;;;;;;;;;25.30;31.20;;;;;;5066787;28;20030;-55
2022/03/22 13:45:02;;;;;;;;;;;25.50;31.30;;;;;;5072001;28;19999;-56
2022/03/22 13:47:29;;;;;;;;;;;25.60;31.00;;;;;;5068526;28;20264;-56
2022/03/22 13:49:55;;;;;;;;;;;25.70;30.90;;;;;;5074302;28;20027;-55
2022/03/22 13:52:25;;;;;;;;;;;25.80;30.80;;;;;;5068820;28;19920;-54
2022/03/22 13:54:53;;;;;;;;;;;25.90;30.70;;;;;;5063675;28;19916;-54
2022/03/22 13:57:19;;;;;;;;;;;26.00;30.60;;;;;;5065813;28;19920;-55
2022/03/22 13:59:44;;;;;;;;;;;26.10;30.60;;;;;;5071715;28;19908;-56
2022/03/22 14:02:10;;;;;;;;;;;26.20;30.70;;;;;;5071439;28;20439;-55
2022/03/22 14:04:36;;;;;;;;;;;26.20;30.70;;;;;;5070995;28;20011;-54
2022/03/22 14:07:05;;;;;;;;;;;26.20;30.60;;;;;;5069596;28;19924;-55
2022/03/22 14:09:31;;;;;;;;;;;26.20;30.70;;;;;;5056987;28;19913;-57
2022/03/22 14:11:57;;;;;;;;;;;26.20;30.80;;;;;;5070868;28;19935;-54
2022/03/22 14:14:23;;;;;;;;;;;26.20;31.00;;;;;;5069198;28;19915;-54
2022/03/22 14:16:48;;;;;;;;;;;26.10;31.00;;;;;;5067500;28;19912;-55
2022/03/22 14:19:15;;;;;;;;;;;26.20;31.20;;;;;;5067081;28;19917;-54
2022/03/22 14:21:40;;;;;;;;;;;26.20;31.90;;;;;;5060595;28;19916;-54
2022/03/22 14:24:06;;;;;;;;;;;26.20;31.30;;;;;;5063246;28;20449;-54
2022/03/22 14:26:31;;;;;;;;;;;26.10;31.40;;;;;;5067468;28;19923;-54
2022/03/22 14:28:57;;;;;;;;;;;26.10;31.60;;;;;;5064110;28;20296;-55
2022/03/22 14:31:23;;;;;;;;;;;26.10;31.70;;;;;;5072557;28;20432;-55
2022/03/22 14:33:48;;;;;;;;;;;26.10;31.70;;;;;;5064198;28;19952;-56
2022/03/22 14:36:14;;;;;;;;;;;26.10;31.80;;;;;;5072347;28;20363;-55
2022/03/22 14:38:40;;;;;;;;;;;26.10;31.70;;;;;;5072633;28;19908;-55
2022/03/22 14:43:49;;;;;;;;;;;26.20;31.80;;;;;;5072425;28;19916;-55
2022/03/22 14:46:15;;;;;;;;;;;26.20;31.80;;;;;;5073021;28;20305;-55
2022/03/22 14:48:40;;;;;;;;;;;26.10;31.90;;;;;;5067493;28;19909;-54
2022/03/22 14:51:06;;;;;;;;;;;26.10;32.00;;;;;;5066341;28;20202;-55
2022/03/22 14:58:59;;;;;;;;;;;26.00;32.30;;;;;;5057183;28;19963;-55